sensor_id;sensor_type;location;lat;lon;timestamp;temperature;humidity
4509;DHT22;2267;48.816;9.230;2022-07-22T00:02:16;25.60;88.00
4509;DHT22;2267;48.816;9.230;2022-07-22T00:04:43;25.60;88.30
4509;DHT22;2267;48.816;9.230;2022-07-22T00:07:10;25.60;89.00
4509;DHT22;2267;48.816;9.230;2022-07-22T00:09:37;25.50;89.50
4509;DHT22;2267;48.816;9.230;2022-07-22T00:12:04;25.50;90.00
4509;DHT22;2267;48.816;9.230;2022-07-22T00:14:31;25.50;90.00
4509;DHT22;2267;48.816;9.230;2022-07-22T00:16:58;25.50;90.00
4509;DHT22;2267;48.816;9.230;2022-07-22T00:19:26;25.50;90.10
4509;DHT22;2267;48.816;9.230;2022-07-22T00:21:53;25.50;90.10
4509;DHT22;2267;48.816;9.230;2022-07-22T00:24:20;25.50;90.10
4509;DHT22;2267;48.816;9.230;2022-07-22T00:26:47;25.40;90.20
4509;DHT22;2267;48.816;9.230;2022-07-22T00:29:13;25.40;90.10
4509;DHT22;2267;48.816;9.230;2022-07-22T00:31:40;25.30;89.80
4509;DHT22;2267;48.816;9.230;2022-07-22T00:34:07;25.30;89.70
4509;DHT22;2267;48.816;9.230;2022-07-22T00:36:34;25.30;89.90
4509;DHT22;2267;48.816;9.230;2022-07-22T00:39:01;25.20;90.00
4509;DHT22;2267;48.816;9.230;2022-07-22T00:41:28;24.90;90.00
4509;DHT22;2267;48.816;9.230;2022-07-22T00:46:24;24.70;90.40
4509;DHT22;2267;48.816;9.230;2022-07-22T00:48:52;24.70;90.60
4509;DHT22;2267;48.816;9.230;2022-07-22T00:51:21;24.70;90.70
4509;DHT22;2267;48.816;9.230;2022-07-22T00:53:49;24.80;90.60
4509;DHT22;2267;48.816;9.230;2022-07-22T00:56:17;24.70;90.60
4509;DHT22;2267;48.816;9.230;2022-07-22T00:58:46;24.70;90.70
4509;DHT22;2267;48.816;9.230;2022-07-22T01:01:13;24.60;90.80
4509;DHT22;2267;48.816;9.230;2022-07-22T01:03:40;24.70;91.00
4509;DHT22;2267;48.816;9.230;2022-07-22T01:06:14;24.70;90.90
4509;DHT22;2267;48.816;9.230;2022-07-22T01:08:41;24.60;91.00
4509;DHT22;2267;48.816;9.230;2022-07-22T01:11:14;24.70;91.10
4509;DHT22;2267;48.816;9.230;2022-07-22T01:13:42;24.60;91.20
4509;DHT22;2267;48.816;9.230;2022-07-22T01:16:12;24.50;91.40
4509;DHT22;2267;48.816;9.230;2022-07-22T01:18:39;24.60;91.40
4509;DHT22;2267;48.816;9.230;2022-07-22T01:21:07;24.70;91.30
4509;DHT22;2267;48.816;9.230;2022-07-22T01:23:35;24.70;91.30
4509;DHT22;2267;48.816;9.230;2022-07-22T01:26:02;24.70;91.30
4509;DHT22;2267;48.816;9.230;2022-07-22T01:28:30;24.60;91.30
4509;DHT22;2267;48.816;9.230;2022-07-22T01:30:57;24.70;91.40
4509;DHT22;2267;48.816;9.230;2022-07-22T01:33:24;24.70;91.50
4509;DHT22;2267;48.816;9.230;2022-07-22T01:35:51;24.70;91.50
4509;DHT22;2267;48.816;9.230;2022-07-22T01:38:19;24.70;91.40
4509;DHT22;2267;48.816;9.230;2022-07-22T01:40:46;24.60;91.90
4509;DHT22;2267;48.816;9.230;2022-07-22T01:43:14;24.50;91.90
4509;DHT22;2267;48.816;9.230;2022-07-22T01:45:45;24.60;91.90
4509;DHT22;2267;48.816;9.230;2022-07-22T01:48:12;24.50;92.00
4509;DHT22;2267;48.816;9.230;2022-07-22T01:50:40;24.50;92.10
4509;DHT22;2267;48.816;9.230;2022-07-22T01:53:07;24.50;92.10
4509;DHT22;2267;48.816;9.230;2022-07-22T01:55:34;24.50;92.00
4509;DHT22;2267;48.816;9.230;2022-07-22T01:58:02;24.60;92.00
4509;DHT22;2267;48.816;9.230;2022-07-22T02:00:31;24.50;91.90
4509;DHT22;2267;48.816;9.230;2022-07-22T02:02:58;24.40;92.00
4509;DHT22;2267;48.816;9.230;2022-07-22T02:05:25;24.50;92.50
4509;DHT22;2267;48.816;9.230;2022-07-22T02:07:52;24.40;92.00
4509;DHT22;2267;48.816;9.230;2022-07-22T02:10:19;24.30;92.10
4509;DHT22;2267;48.816;9.230;2022-07-22T02:12:46;24.30;92.20
4509;DHT22;2267;48.816;9.230;2022-07-22T02:15:13;24.30;92.30
4509;DHT22;2267;48.816;9.230;2022-07-22T02:17:39;24.40;92.30
4509;DHT22;2267;48.816;9.230;2022-07-22T02:20:07;24.40;92.30
4509;DHT22;2267;48.816;9.230;2022-07-22T02:22:33;24.30;92.20
4509;DHT22;2267;48.816;9.230;2022-07-22T02:25:00;24.30;92.50
4509;DHT22;2267;48.816;9.230;2022-07-22T02:27:27;24.30;92.80
4509;DHT22;2267;48.816;9.230;2022-07-22T02:29:54;24.30;92.80
4509;DHT22;2267;48.816;9.230;2022-07-22T02:32:20;24.20;92.70
4509;DHT22;2267;48.816;9.230;2022-07-22T02:34:48;24.20;92.80
4509;DHT22;2267;48.816;9.230;2022-07-22T02:37:15;24.00;93.00
4509;DHT22;2267;48.816;9.230;2022-07-22T02:39:43;24.10;93.30
4509;DHT22;2267;48.816;9.230;2022-07-22T02:42:09;24.10;93.20
4509;DHT22;2267;48.816;9.230;2022-07-22T02:44:36;24.20;93.00
4509;DHT22;2267;48.816;9.230;2022-07-22T02:47:03;24.10;93.00
4509;DHT22;2267;48.816;9.230;2022-07-22T02:49:30;24.10;93.00
4509;DHT22;2267;48.816;9.230;2022-07-22T02:51:57;24.10;93.00
4509;DHT22;2267;48.816;9.230;2022-07-22T02:54:23;24.10;93.00
4509;DHT22;2267;48.816;9.230;2022-07-22T02:56:50;24.10;93.30
4509;DHT22;2267;48.816;9.230;2022-07-22T02:59:17;24.10;92.90
4509;DHT22;2267;48.816;9.230;2022-07-22T03:01:44;24.10;93.00
4509;DHT22;2267;48.816;9.230;2022-07-22T03:04:11;24.10;93.00
4509;DHT22;2267;48.816;9.230;2022-07-22T03:06:38;24.00;92.90
4509;DHT22;2267;48.816;9.230;2022-07-22T03:09:04;24.00;92.90
4509;DHT22;2267;48.816;9.230;2022-07-22T03:11:31;24.00;92.90
4509;DHT22;2267;48.816;9.230;2022-07-22T03:13:58;24.00;93.00
4509;DHT22;2267;48.816;9.230;2022-07-22T03:16:25;23.90;93.00
4509;DHT22;2267;48.816;9.230;2022-07-22T03:18:51;23.80;93.20
4509;DHT22;2267;48.816;9.230;2022-07-22T03:21:19;23.70;93.30
4509;DHT22;2267;48.816;9.230;2022-07-22T03:23:45;23.70;93.60
4509;DHT22;2267;48.816;9.230;2022-07-22T03:26:12;23.70;93.50
4509;DHT22;2267;48.816;9.230;2022-07-22T03:28:39;23.60;93.60
4509;DHT22;2267;48.816;9.230;2022-07-22T03:31:06;23.50;94.00
4509;DHT22;2267;48.816;9.230;2022-07-22T03:33:33;23.40;93.60
4509;DHT22;2267;48.816;9.230;2022-07-22T03:36:00;23.40;93.80
4509;DHT22;2267;48.816;9.230;2022-07-22T03:38:26;23.50;93.80
4509;DHT22;2267;48.816;9.230;2022-07-22T03:40:53;23.50;93.60
4509;DHT22;2267;48.816;9.230;2022-07-22T03:43:22;23.50;93.60
4509;DHT22;2267;48.816;9.230;2022-07-22T03:45:48;23.50;94.00
4509;DHT22;2267;48.816;9.230;2022-07-22T03:48:15;23.40;93.60
4509;DHT22;2267;48.816;9.230;2022-07-22T03:50:42;23.40;93.50
4509;DHT22;2267;48.816;9.230;2022-07-22T03:53:09;23.40;93.70
4509;DHT22;2267;48.816;9.230;2022-07-22T03:55:36;23.40;93.70
4509;DHT22;2267;48.816;9.230;2022-07-22T03:58:03;23.40;93.80
4509;DHT22;2267;48.816;9.230;2022-07-22T04:00:30;23.40;93.80
4509;DHT22;2267;48.816;9.230;2022-07-22T04:02:57;23.30;93.80
4509;DHT22;2267;48.816;9.230;2022-07-22T04:05:24;23.30;93.80
4509;DHT22;2267;48.816;9.230;2022-07-22T04:07:51;23.30;93.90
4509;DHT22;2267;48.816;9.230;2022-07-22T04:10:17;23.30;94.00
4509;DHT22;2267;48.816;9.230;2022-07-22T04:12:44;23.40;94.00
4509;DHT22;2267;48.816;9.230;2022-07-22T04:15:11;23.40;94.00
4509;DHT22;2267;48.816;9.230;2022-07-22T04:17:38;23.30;94.00
4509;DHT22;2267;48.816;9.230;2022-07-22T04:20:05;23.30;94.10
4509;DHT22;2267;48.816;9.230;2022-07-22T04:22:33;23.20;94.20
4509;DHT22;2267;48.816;9.230;2022-07-22T04:24:59;23.20;94.30
4509;DHT22;2267;48.816;9.230;2022-07-22T04:27:26;23.10;94.40
4509;DHT22;2267;48.816;9.230;2022-07-22T04:29:53;23.10;94.70
4509;DHT22;2267;48.816;9.230;2022-07-22T04:32:20;23.10;94.60
4509;DHT22;2267;48.816;9.230;2022-07-22T04:34:47;23.10;94.50
4509;DHT22;2267;48.816;9.230;2022-07-22T04:37:14;23.20;94.50
4509;DHT22;2267;48.816;9.230;2022-07-22T04:39:41;23.20;94.90
4509;DHT22;2267;48.816;9.230;2022-07-22T04:42:08;23.30;94.50
4509;DHT22;2267;48.816;9.230;2022-07-22T04:44:35;23.30;94.40
4509;DHT22;2267;48.816;9.230;2022-07-22T04:47:01;23.30;94.30
4509;DHT22;2267;48.816;9.230;2022-07-22T04:49:34;23.30;94.30
4509;DHT22;2267;48.816;9.230;2022-07-22T04:52:01;23.30;94.40
4509;DHT22;2267;48.816;9.230;2022-07-22T04:54:28;23.30;94.50
4509;DHT22;2267;48.816;9.230;2022-07-22T04:56:55;23.30;94.50
4509;DHT22;2267;48.816;9.230;2022-07-22T04:59:22;23.30;94.60
4509;DHT22;2267;48.816;9.230;2022-07-22T05:01:49;23.30;94.50
4509;DHT22;2267;48.816;9.230;2022-07-22T05:04:16;23.30;94.40
4509;DHT22;2267;48.816;9.230;2022-07-22T05:06:43;23.40;94.30
4509;DHT22;2267;48.816;9.230;2022-07-22T05:09:10;23.40;94.10
4509;DHT22;2267;48.816;9.230;2022-07-22T05:11:37;23.50;94.50
4509;DHT22;2267;48.816;9.230;2022-07-22T05:14:04;23.50;94.30
4509;DHT22;2267;48.816;9.230;2022-07-22T05:16:31;23.50;93.70
4509;DHT22;2267;48.816;9.230;2022-07-22T05:18:58;23.60;93.70
4509;DHT22;2267;48.816;9.230;2022-07-22T05:21:25;23.60;93.70
4509;DHT22;2267;48.816;9.230;2022-07-22T05:23:52;23.60;93.70
4509;DHT22;2267;48.816;9.230;2022-07-22T05:26:19;23.60;93.70
4509;DHT22;2267;48.816;9.230;2022-07-22T05:28:45;23.70;93.60
4509;DHT22;2267;48.816;9.230;2022-07-22T05:31:12;23.80;93.70
4509;DHT22;2267;48.816;9.230;2022-07-22T05:33:39;23.80;93.70
4509;DHT22;2267;48.816;9.230;2022-07-22T05:36:06;23.80;93.50
4509;DHT22;2267;48.816;9.230;2022-07-22T05:38:36;23.80;93.50
4509;DHT22;2267;48.816;9.230;2022-07-22T05:41:03;23.80;93.50
4509;DHT22;2267;48.816;9.230;2022-07-22T05:43:30;23.80;93.50
4509;DHT22;2267;48.816;9.230;2022-07-22T05:45:56;23.90;93.60
4509;DHT22;2267;48.816;9.230;2022-07-22T05:48:23;23.90;93.40
4509;DHT22;2267;48.816;9.230;2022-07-22T05:50:50;23.90;93.40
4509;DHT22;2267;48.816;9.230;2022-07-22T05:53:17;23.90;93.40
4509;DHT22;2267;48.816;9.230;2022-07-22T05:55:44;23.90;93.40
4509;DHT22;2267;48.816;9.230;2022-07-22T05:58:11;23.90;93.30
4509;DHT22;2267;48.816;9.230;2022-07-22T06:00:38;23.90;93.40
4509;DHT22;2267;48.816;9.230;2022-07-22T06:03:06;23.90;93.50
4509;DHT22;2267;48.816;9.230;2022-07-22T06:05:33;24.00;93.50
4509;DHT22;2267;48.816;9.230;2022-07-22T06:08:04;24.10;93.40
4509;DHT22;2267;48.816;9.230;2022-07-22T06:10:31;24.10;93.20
4509;DHT22;2267;48.816;9.230;2022-07-22T06:12:58;24.20;93.20
4509;DHT22;2267;48.816;9.230;2022-07-22T06:15:25;24.10;93.10
4509;DHT22;2267;48.816;9.230;2022-07-22T06:17:53;24.20;93.10
4509;DHT22;2267;48.816;9.230;2022-07-22T06:20:20;24.20;93.00
4509;DHT22;2267;48.816;9.230;2022-07-22T06:22:47;24.20;92.90
4509;DHT22;2267;48.816;9.230;2022-07-22T06:25:14;24.20;93.20
4509;DHT22;2267;48.816;9.230;2022-07-22T06:28:00;24.30;93.20
4509;DHT22;2267;48.816;9.230;2022-07-22T06:30:27;24.40;93.00
4509;DHT22;2267;48.816;9.230;2022-07-22T06:32:54;24.40;93.10
4509;DHT22;2267;48.816;9.230;2022-07-22T06:35:22;24.50;93.00
4509;DHT22;2267;48.816;9.230;2022-07-22T06:37:53;24.50;92.80
4509;DHT22;2267;48.816;9.230;2022-07-22T06:40:32;24.60;92.90
4509;DHT22;2267;48.816;9.230;2022-07-22T06:42:59;24.60;92.60
4509;DHT22;2267;48.816;9.230;2022-07-22T06:45:26;24.60;92.40
4509;DHT22;2267;48.816;9.230;2022-07-22T06:47:53;24.70;92.30
4509;DHT22;2267;48.816;9.230;2022-07-22T06:50:21;24.70;92.40
4509;DHT22;2267;48.816;9.230;2022-07-22T06:52:50;24.80;92.50
4509;DHT22;2267;48.816;9.230;2022-07-22T06:55:17;25.00;92.30
4509;DHT22;2267;48.816;9.230;2022-07-22T06:57:43;25.00;92.20
4509;DHT22;2267;48.816;9.230;2022-07-22T07:00:10;25.10;91.90
4509;DHT22;2267;48.816;9.230;2022-07-22T07:02:37;25.10;92.00
4509;DHT22;2267;48.816;9.230;2022-07-22T07:05:04;25.20;91.80
4509;DHT22;2267;48.816;9.230;2022-07-22T07:07:32;25.20;91.50
4509;DHT22;2267;48.816;9.230;2022-07-22T07:10:03;25.30;91.50
4509;DHT22;2267;48.816;9.230;2022-07-22T07:12:34;25.30;91.10
4509;DHT22;2267;48.816;9.230;2022-07-22T07:15:05;25.20;91.30
4509;DHT22;2267;48.816;9.230;2022-07-22T07:17:51;25.30;91.50
4509;DHT22;2267;48.816;9.230;2022-07-22T07:20:19;25.30;91.40
4509;DHT22;2267;48.816;9.230;2022-07-22T07:22:46;25.30;91.40
4509;DHT22;2267;48.816;9.230;2022-07-22T07:25:13;25.40;91.30
4509;DHT22;2267;48.816;9.230;2022-07-22T07:27:49;25.40;91.30
4509;DHT22;2267;48.816;9.230;2022-07-22T07:30:17;25.40;91.20
4509;DHT22;2267;48.816;9.230;2022-07-22T07:32:44;25.50;91.20
4509;DHT22;2267;48.816;9.230;2022-07-22T07:35:11;25.50;91.30
4509;DHT22;2267;48.816;9.230;2022-07-22T07:37:38;25.50;91.20
4509;DHT22;2267;48.816;9.230;2022-07-22T07:40:06;25.50;91.20
4509;DHT22;2267;48.816;9.230;2022-07-22T07:42:34;25.60;91.20
4509;DHT22;2267;48.816;9.230;2022-07-22T07:45:09;25.60;91.30
4509;DHT22;2267;48.816;9.230;2022-07-22T07:47:36;25.60;91.10
4509;DHT22;2267;48.816;9.230;2022-07-22T07:50:04;25.60;91.00
4509;DHT22;2267;48.816;9.230;2022-07-22T07:52:31;25.70;91.00
4509;DHT22;2267;48.816;9.230;2022-07-22T07:55:02;25.60;90.70
4509;DHT22;2267;48.816;9.230;2022-07-22T07:57:39;25.60;91.20
4509;DHT22;2267;48.816;9.230;2022-07-22T08:00:08;25.50;90.20
4509;DHT22;2267;48.816;9.230;2022-07-22T08:02:38;25.40;90.20
4509;DHT22;2267;48.816;9.230;2022-07-22T08:05:07;25.40;89.50
4509;DHT22;2267;48.816;9.230;2022-07-22T08:07:36;25.40;90.10
4509;DHT22;2267;48.816;9.230;2022-07-22T08:10:06;25.40;90.00
4509;DHT22;2267;48.816;9.230;2022-07-22T08:12:54;25.40;90.10
4509;DHT22;2267;48.816;9.230;2022-07-22T08:15:22;25.30;90.80
4509;DHT22;2267;48.816;9.230;2022-07-22T08:17:52;25.30;90.80
4509;DHT22;2267;48.816;9.230;2022-07-22T08:20:20;25.30;90.40
4509;DHT22;2267;48.816;9.230;2022-07-22T08:22:49;25.40;90.20
4509;DHT22;2267;48.816;9.230;2022-07-22T08:25:16;25.40;90.20
4509;DHT22;2267;48.816;9.230;2022-07-22T08:27:43;25.40;90.70
4509;DHT22;2267;48.816;9.230;2022-07-22T08:30:11;25.40;90.70
4509;DHT22;2267;48.816;9.230;2022-07-22T08:32:38;25.50;90.40
4509;DHT22;2267;48.816;9.230;2022-07-22T08:35:05;25.60;90.30
4509;DHT22;2267;48.816;9.230;2022-07-22T08:37:32;25.60;90.30
4509;DHT22;2267;48.816;9.230;2022-07-22T08:39:59;25.70;90.00
4509;DHT22;2267;48.816;9.230;2022-07-22T08:42:26;25.70;90.40
4509;DHT22;2267;48.816;9.230;2022-07-22T08:44:54;25.70;90.40
4509;DHT22;2267;48.816;9.230;2022-07-22T08:47:28;25.70;90.30
4509;DHT22;2267;48.816;9.230;2022-07-22T08:50:07;25.80;90.10
4509;DHT22;2267;48.816;9.230;2022-07-22T08:52:35;25.90;90.00
4509;DHT22;2267;48.816;9.230;2022-07-22T08:55:06;25.90;90.20
4509;DHT22;2267;48.816;9.230;2022-07-22T08:57:33;25.90;89.80
4509;DHT22;2267;48.816;9.230;2022-07-22T09:00:01;26.00;89.60
4509;DHT22;2267;48.816;9.230;2022-07-22T09:02:36;26.00;90.20
4509;DHT22;2267;48.816;9.230;2022-07-22T09:05:06;26.10;89.20
4509;DHT22;2267;48.816;9.230;2022-07-22T09:07:58;26.10;89.70
4509;DHT22;2267;48.816;9.230;2022-07-22T09:10:31;26.20;89.90
4509;DHT22;2267;48.816;9.230;2022-07-22T09:13:01;26.20;89.90
4509;DHT22;2267;48.816;9.230;2022-07-22T09:15:31;26.30;90.20
4509;DHT22;2267;48.816;9.230;2022-07-22T09:17:59;26.40;89.80
4509;DHT22;2267;48.816;9.230;2022-07-22T09:20:32;26.40;88.80
4509;DHT22;2267;48.816;9.230;2022-07-22T09:22:59;26.50;89.80
4509;DHT22;2267;48.816;9.230;2022-07-22T09:25:30;26.50;87.90
4509;DHT22;2267;48.816;9.230;2022-07-22T09:30:54;26.50;87.60
4509;DHT22;2267;48.816;9.230;2022-07-22T09:33:24;26.60;86.90
4509;DHT22;2267;48.816;9.230;2022-07-22T09:35:53;26.60;85.70
4509;DHT22;2267;48.816;9.230;2022-07-22T09:38:28;26.60;86.30
4509;DHT22;2267;48.816;9.230;2022-07-22T09:40:56;26.70;86.50
4509;DHT22;2267;48.816;9.230;2022-07-22T09:43:24;26.70;87.70
4509;DHT22;2267;48.816;9.230;2022-07-22T09:45:57;26.80;87.30
4509;DHT22;2267;48.816;9.230;2022-07-22T09:48:24;26.80;86.30
4509;DHT22;2267;48.816;9.230;2022-07-22T09:50:53;26.90;85.80
4509;DHT22;2267;48.816;9.230;2022-07-22T09:53:22;26.90;86.70
4509;DHT22;2267;48.816;9.230;2022-07-22T09:55:49;26.90;87.00
4509;DHT22;2267;48.816;9.230;2022-07-22T09:58:16;27.00;87.80
4509;DHT22;2267;48.816;9.230;2022-07-22T10:00:44;27.10;86.80
4509;DHT22;2267;48.816;9.230;2022-07-22T10:03:17;27.20;85.40
4509;DHT22;2267;48.816;9.230;2022-07-22T10:05:46;27.20;84.30
4509;DHT22;2267;48.816;9.230;2022-07-22T10:08:13;27.30;83.70
4509;DHT22;2267;48.816;9.230;2022-07-22T10:10:40;27.30;82.90
4509;DHT22;2267;48.816;9.230;2022-07-22T10:13:08;27.40;83.70
4509;DHT22;2267;48.816;9.230;2022-07-22T10:15:36;27.40;83.90
4509;DHT22;2267;48.816;9.230;2022-07-22T10:18:06;27.40;83.60
4509;DHT22;2267;48.816;9.230;2022-07-22T10:20:35;27.50;83.40
4509;DHT22;2267;48.816;9.230;2022-07-22T10:23:04;27.50;83.60
4509;DHT22;2267;48.816;9.230;2022-07-22T10:25:52;27.50;83.70
4509;DHT22;2267;48.816;9.230;2022-07-22T10:28:25;27.60;84.40
4509;DHT22;2267;48.816;9.230;2022-07-22T10:30:53;27.70;83.00
4509;DHT22;2267;48.816;9.230;2022-07-22T10:33:21;27.80;81.40
4509;DHT22;2267;48.816;9.230;2022-07-22T10:35:56;27.90;82.10
4509;DHT22;2267;48.816;9.230;2022-07-22T10:38:25;27.90;81.80
4509;DHT22;2267;48.816;9.230;2022-07-22T10:40:58;28.00;81.40
4509;DHT22;2267;48.816;9.230;2022-07-22T10:43:28;28.00;81.00
4509;DHT22;2267;48.816;9.230;2022-07-22T10:45:56;28.10;82.80
4509;DHT22;2267;48.816;9.230;2022-07-22T10:51:12;28.30;81.80
4509;DHT22;2267;48.816;9.230;2022-07-22T10:56:17;28.50;79.20
4509;DHT22;2267;48.816;9.230;2022-07-22T11:01:15;28.70;80.20
4509;DHT22;2267;48.816;9.230;2022-07-22T11:03:45;28.70;78.70
4509;DHT22;2267;48.816;9.230;2022-07-22T11:08:48;28.90;77.80
4509;DHT22;2267;48.816;9.230;2022-07-22T11:11:16;29.00;77.90
4509;DHT22;2267;48.816;9.230;2022-07-22T11:13:44;29.20;77.10
4509;DHT22;2267;48.816;9.230;2022-07-22T11:16:20;29.30;77.30
4509;DHT22;2267;48.816;9.230;2022-07-22T11:18:53;29.50;75.90
4509;DHT22;2267;48.816;9.230;2022-07-22T11:21:22;29.70;75.00
4509;DHT22;2267;48.816;9.230;2022-07-22T11:23:52;29.80;74.10
4509;DHT22;2267;48.816;9.230;2022-07-22T11:26:43;29.90;73.40
4509;DHT22;2267;48.816;9.230;2022-07-22T11:29:26;30.00;73.30
4509;DHT22;2267;48.816;9.230;2022-07-22T11:31:55;30.20;72.60
4509;DHT22;2267;48.816;9.230;2022-07-22T11:34:23;30.30;73.20
4509;DHT22;2267;48.816;9.230;2022-07-22T11:36:50;30.40;72.50
4509;DHT22;2267;48.816;9.230;2022-07-22T11:39:26;30.50;71.30
4509;DHT22;2267;48.816;9.230;2022-07-22T11:41:55;30.70;71.20
4509;DHT22;2267;48.816;9.230;2022-07-22T11:44:28;30.80;70.80
4509;DHT22;2267;48.816;9.230;2022-07-22T11:46:57;30.90;70.80
4509;DHT22;2267;48.816;9.230;2022-07-22T11:49:29;31.00;69.70
4509;DHT22;2267;48.816;9.230;2022-07-22T11:51:57;31.20;68.70
4509;DHT22;2267;48.816;9.230;2022-07-22T11:54:24;31.30;67.80
4509;DHT22;2267;48.816;9.230;2022-07-22T11:56:50;31.40;66.90
4509;DHT22;2267;48.816;9.230;2022-07-22T11:59:23;31.40;65.10
4509;DHT22;2267;48.816;9.230;2022-07-22T12:01:50;31.40;65.60
4509;DHT22;2267;48.816;9.230;2022-07-22T12:04:20;31.50;67.00
4509;DHT22;2267;48.816;9.230;2022-07-22T12:06:48;31.60;65.30
4509;DHT22;2267;48.816;9.230;2022-07-22T12:09:26;31.80;65.30
4509;DHT22;2267;48.816;9.230;2022-07-22T12:11:56;31.80;65.10
4509;DHT22;2267;48.816;9.230;2022-07-22T12:14:30;31.90;65.20
4509;DHT22;2267;48.816;9.230;2022-07-22T12:19:29;32.10;64.80
4509;DHT22;2267;48.816;9.230;2022-07-22T12:22:05;32.10;63.90
4509;DHT22;2267;48.816;9.230;2022-07-22T12:24:46;32.20;64.80
4509;DHT22;2267;48.816;9.230;2022-07-22T12:27:23;32.30;63.70
4509;DHT22;2267;48.816;9.230;2022-07-22T12:29:50;32.40;64.70
4509;DHT22;2267;48.816;9.230;2022-07-22T12:35:00;32.70;62.10
4509;DHT22;2267;48.816;9.230;2022-07-22T12:37:42;32.80;61.40
4509;DHT22;2267;48.816;9.230;2022-07-22T12:42:41;33.00;60.90
4509;DHT22;2267;48.816;9.230;2022-07-22T12:45:10;33.10;60.80
4509;DHT22;2267;48.816;9.230;2022-07-22T12:55:49;33.60;58.70
4509;DHT22;2267;48.816;9.230;2022-07-22T12:58:19;33.60;57.90
4509;DHT22;2267;48.816;9.230;2022-07-22T13:00:53;33.80;57.60
4509;DHT22;2267;48.816;9.230;2022-07-22T13:03:21;33.80;57.30
4509;DHT22;2267;48.816;9.230;2022-07-22T13:05:57;33.90;56.80
4509;DHT22;2267;48.816;9.230;2022-07-22T13:08:25;34.00;57.30
4509;DHT22;2267;48.816;9.230;2022-07-22T13:11:05;34.10;56.40
4509;DHT22;2267;48.816;9.230;2022-07-22T13:13:32;34.20;56.50
4509;DHT22;2267;48.816;9.230;2022-07-22T13:15:59;34.30;55.70
4509;DHT22;2267;48.816;9.230;2022-07-22T13:18:26;34.30;55.20
4509;DHT22;2267;48.816;9.230;2022-07-22T13:20:53;34.30;55.40
4509;DHT22;2267;48.816;9.230;2022-07-22T13:23:19;34.40;55.70
4509;DHT22;2267;48.816;9.230;2022-07-22T13:25:46;34.60;56.40
4509;DHT22;2267;48.816;9.230;2022-07-22T13:28:20;34.80;55.20
4509;DHT22;2267;48.816;9.230;2022-07-22T13:30:47;34.90;54.70
4509;DHT22;2267;48.816;9.230;2022-07-22T13:33:14;34.80;55.40
4509;DHT22;2267;48.816;9.230;2022-07-22T13:35:43;34.90;55.20
4509;DHT22;2267;48.816;9.230;2022-07-22T13:38:10;34.80;53.90
4509;DHT22;2267;48.816;9.230;2022-07-22T13:40:43;34.90;53.80
4509;DHT22;2267;48.816;9.230;2022-07-22T13:43:18;34.90;54.20
4509;DHT22;2267;48.816;9.230;2022-07-22T13:45:45;35.00;53.90
4509;DHT22;2267;48.816;9.230;2022-07-22T13:48:12;35.00;54.00
4509;DHT22;2267;48.816;9.230;2022-07-22T13:50:39;35.10;52.90
4509;DHT22;2267;48.816;9.230;2022-07-22T13:53:06;35.10;53.30
4509;DHT22;2267;48.816;9.230;2022-07-22T13:55:33;35.20;53.50
4509;DHT22;2267;48.816;9.230;2022-07-22T13:58:00;35.30;53.20
4509;DHT22;2267;48.816;9.230;2022-07-22T14:00:27;35.30;52.20
4509;DHT22;2267;48.816;9.230;2022-07-22T14:02:54;35.30;52.20
4509;DHT22;2267;48.816;9.230;2022-07-22T14:05:21;35.30;52.10
4509;DHT22;2267;48.816;9.230;2022-07-22T14:07:48;35.20;51.50
4509;DHT22;2267;48.816;9.230;2022-07-22T14:10:15;35.30;52.10
4509;DHT22;2267;48.816;9.230;2022-07-22T14:12:42;35.40;52.20
4509;DHT22;2267;48.816;9.230;2022-07-22T14:15:10;35.40;52.10
4509;DHT22;2267;48.816;9.230;2022-07-22T14:17:37;35.50;51.10
4509;DHT22;2267;48.816;9.230;2022-07-22T14:20:06;35.50;51.50
4509;DHT22;2267;48.816;9.230;2022-07-22T14:22:34;35.60;51.30
4509;DHT22;2267;48.816;9.230;2022-07-22T14:25:01;35.70;51.00
4509;DHT22;2267;48.816;9.230;2022-07-22T14:27:28;35.70;51.00
4509;DHT22;2267;48.816;9.230;2022-07-22T14:29:55;35.80;51.70
4509;DHT22;2267;48.816;9.230;2022-07-22T14:32:22;35.90;51.40
4509;DHT22;2267;48.816;9.230;2022-07-22T14:34:49;35.80;51.70
4509;DHT22;2267;48.816;9.230;2022-07-22T14:37:16;36.00;51.50
4509;DHT22;2267;48.816;9.230;2022-07-22T14:39:42;35.80;51.00
4509;DHT22;2267;48.816;9.230;2022-07-22T14:42:10;35.90;50.90
4509;DHT22;2267;48.816;9.230;2022-07-22T14:44:36;35.90;50.50
4509;DHT22;2267;48.816;9.230;2022-07-22T14:47:03;35.90;49.40
4509;DHT22;2267;48.816;9.230;2022-07-22T14:49:30;35.70;49.20
4509;DHT22;2267;48.816;9.230;2022-07-22T14:51:57;35.70;49.70
4509;DHT22;2267;48.816;9.230;2022-07-22T14:54:24;35.80;49.20
4509;DHT22;2267;48.816;9.230;2022-07-22T14:56:51;35.80;49.20
4509;DHT22;2267;48.816;9.230;2022-07-22T14:59:17;35.80;48.90
4509;DHT22;2267;48.816;9.230;2022-07-22T15:01:44;35.80;49.40
4509;DHT22;2267;48.816;9.230;2022-07-22T15:04:11;35.80;48.90
4509;DHT22;2267;48.816;9.230;2022-07-22T15:06:38;35.80;46.90
4509;DHT22;2267;48.816;9.230;2022-07-22T15:09:05;35.70;46.30
4509;DHT22;2267;48.816;9.230;2022-07-22T15:11:32;35.70;46.70
4509;DHT22;2267;48.816;9.230;2022-07-22T15:13:58;35.70;46.70
4509;DHT22;2267;48.816;9.230;2022-07-22T15:16:26;35.60;46.90
4509;DHT22;2267;48.816;9.230;2022-07-22T15:18:54;35.70;47.00
4509;DHT22;2267;48.816;9.230;2022-07-22T15:21:20;35.80;46.90
4509;DHT22;2267;48.816;9.230;2022-07-22T15:23:50;35.90;47.30
4509;DHT22;2267;48.816;9.230;2022-07-22T15:26:17;35.90;46.50
4509;DHT22;2267;48.816;9.230;2022-07-22T15:28:44;35.90;46.80
4509;DHT22;2267;48.816;9.230;2022-07-22T15:31:13;35.70;47.50
4509;DHT22;2267;48.816;9.230;2022-07-22T15:33:40;35.70;48.70
4509;DHT22;2267;48.816;9.230;2022-07-22T15:36:08;35.70;49.00
4509;DHT22;2267;48.816;9.230;2022-07-22T15:38:37;35.70;48.40
4509;DHT22;2267;48.816;9.230;2022-07-22T15:41:05;35.60;48.10
4509;DHT22;2267;48.816;9.230;2022-07-22T15:43:32;35.50;48.60
4509;DHT22;2267;48.816;9.230;2022-07-22T15:45:59;35.50;49.20
4509;DHT22;2267;48.816;9.230;2022-07-22T15:48:26;35.50;48.50
4509;DHT22;2267;48.816;9.230;2022-07-22T15:50:53;35.50;48.10
4509;DHT22;2267;48.816;9.230;2022-07-22T15:53:28;35.40;48.30
4509;DHT22;2267;48.816;9.230;2022-07-22T15:55:55;35.30;48.30
4509;DHT22;2267;48.816;9.230;2022-07-22T15:58:22;35.30;49.00
4509;DHT22;2267;48.816;9.230;2022-07-22T16:01:07;35.20;48.90
4509;DHT22;2267;48.816;9.230;2022-07-22T16:03:34;35.10;48.60
4509;DHT22;2267;48.816;9.230;2022-07-22T16:06:01;35.00;48.90
4509;DHT22;2267;48.816;9.230;2022-07-22T16:08:28;35.00;49.20
4509;DHT22;2267;48.816;9.230;2022-07-22T16:10:57;35.10;49.50
4509;DHT22;2267;48.816;9.230;2022-07-22T16:13:24;35.10;48.90
4509;DHT22;2267;48.816;9.230;2022-07-22T16:15:50;35.10;48.30
4509;DHT22;2267;48.816;9.230;2022-07-22T16:18:17;35.00;48.30
4509;DHT22;2267;48.816;9.230;2022-07-22T16:20:45;34.90;48.80
4509;DHT22;2267;48.816;9.230;2022-07-22T16:23:12;34.80;49.40
4509;DHT22;2267;48.816;9.230;2022-07-22T16:25:39;34.70;49.10
4509;DHT22;2267;48.816;9.230;2022-07-22T16:28:06;34.60;49.50
4509;DHT22;2267;48.816;9.230;2022-07-22T16:30:33;34.40;50.20
4509;DHT22;2267;48.816;9.230;2022-07-22T16:32:59;34.40;50.60
4509;DHT22;2267;48.816;9.230;2022-07-22T16:35:26;34.40;50.50
4509;DHT22;2267;48.816;9.230;2022-07-22T16:37:53;34.40;49.90
4509;DHT22;2267;48.816;9.230;2022-07-22T16:40:28;34.50;49.80
4509;DHT22;2267;48.816;9.230;2022-07-22T16:42:55;34.40;49.40